Time;durP1;ratioP1;P1;durP2;ratioP2;P2;SDS_P1;SDS_P2;PMS_P1;PMS_P2;Temp;Humidity;BMP_temperature;BMP_pressure;BME280_temperature;BME280_humidity;BME280_pressure;Samples;Min_cycle;Max_cycle;Signal;HPM_P1;HPM_P2
2023/09/21 00:01:33;;;;;;;13.20;9.70;;;;;;;14.70;100.00;101199.13;107323;1244;62169;-71
2023/09/21 00:04:02;;;;;;;16.60;10.10;;;;;;;14.63;100.00;101200.55;107275;1244;71524;-71
2023/09/21 00:06:32;;;;;;;14.80;9.40;;;;;;;14.59;100.00;101196.70;107340;1245;59993;-73
2023/09/21 00:09:01;;;;;;;11.40;9.60;;;;;;;14.62;100.00;101190.45;107426;1244;62741;-73
2023/09/21 00:11:33;;;;;;;14.80;10.20;;;;;;;14.56;100.00;101189.16;107324;1248;62897;-71
2023/09/21 00:14:02;;;;;;;12.10;10.20;;;;;;;14.59;100.00;101193.17;107208;1244;60909;-75
2023/09/21 00:16:31;;;;;;;12.10;10.10;;;;;;;14.58;100.00;101194.98;107336;1244;63412;-74
2023/09/21 00:19:06;;;;;;;14.20;10.80;;;;;;;14.58;100.00;101194.44;107279;1246;61529;-75
2023/09/21 00:21:37;;;;;;;13.40;10.80;;;;;;;14.51;100.00;101191.86;107201;1243;70667;-72
2023/09/21 00:24:16;;;;;;;13.30;10.70;;;;;;;14.43;100.00;101187.14;107221;1255;62459;-74
2023/09/21 00:26:49;;;;;;;13.50;10.60;;;;;;;14.36;100.00;101187.63;107334;1255;62629;-75
2023/09/21 00:29:18;;;;;;;14.10;10.30;;;;;;;14.38;100.00;101186.58;107276;1245;61537;-74
2023/09/21 00:31:47;;;;;;;14.10;10.90;;;;;;;14.42;100.00;101184.69;107241;1245;72897;-75
2023/09/21 00:34:17;;;;;;;13.60;10.60;;;;;;;14.44;100.00;101182.58;107183;1251;72311;-74
2023/09/21 00:36:46;;;;;;;13.60;11.00;;;;;;;14.48;100.00;101180.23;107363;1244;60273;-74
2023/09/21 00:39:15;;;;;;;14.70;10.50;;;;;;;14.42;100.00;101178.73;107285;1244;63589;-75
2023/09/21 00:41:45;;;;;;;13.00;10.20;;;;;;;14.39;100.00;101178.45;107328;1244;58945;-75
2023/09/21 00:44:14;;;;;;;13.60;10.30;;;;;;;14.38;100.00;101178.91;107336;1245;57392;-73
2023/09/21 00:46:44;;;;;;;15.30;10.70;;;;;;;14.34;100.00;101181.38;107226;1245;72766;-74
2023/09/21 00:49:14;;;;;;;12.40;10.10;;;;;;;14.29;100.00;101179.66;107218;1246;71693;-73
2023/09/21 00:51:45;;;;;;;12.60;9.90;;;;;;;14.20;100.00;101178.22;107185;1244;61308;-74
2023/09/21 00:54:15;;;;;;;14.10;10.20;;;;;;;14.12;100.00;101179.57;107372;1245;63268;-73
2023/09/21 00:56:44;;;;;;;13.90;10.20;;;;;;;14.09;100.00;101177.20;107302;1246;61249;-70
2023/09/21 00:59:15;;;;;;;14.30;10.50;;;;;;;14.09;100.00;101177.93;107129;1244;59436;-72
2023/09/21 01:01:45;;;;;;;12.90;9.70;;;;;;;14.05;100.00;101176.81;107158;1253;62698;-72
2023/09/21 01:04:15;;;;;;;12.60;10.30;;;;;;;14.11;100.00;101175.66;107305;1244;71009;-72
2023/09/21 01:06:47;;;;;;;14.20;10.30;;;;;;;14.03;100.00;101172.20;107316;1244;60329;-74
2023/09/21 01:09:17;;;;;;;11.80;10.20;;;;;;;13.92;100.00;101174.54;107304;1245;62339;-74
2023/09/21 01:11:48;;;;;;;12.60;10.50;;;;;;;13.81;100.00;101178.75;107372;1245;58835;-76
2023/09/21 01:14:17;;;;;;;15.00;11.50;;;;;;;13.79;100.00;101175.04;107319;1245;60982;-75
2023/09/21 01:16:46;;;;;;;13.80;10.70;;;;;;;13.85;100.00;101174.21;107276;1246;63340;-71
2023/09/21 01:19:15;;;;;;;15.60;11.20;;;;;;;13.83;100.00;101171.77;107210;1244;61433;-70
2023/09/21 01:21:49;;;;;;;14.00;10.90;;;;;;;13.80;100.00;101172.86;107272;1251;70473;-71
2023/09/21 01:24:22;;;;;;;16.80;11.00;;;;;;;13.73;100.00;101167.91;107123;1247;63553;-72
2023/09/21 01:26:51;;;;;;;14.50;11.10;;;;;;;13.65;100.00;101164.94;107221;1245;61857;-74
2023/09/21 01:29:21;;;;;;;16.70;11.20;;;;;;;13.58;100.00;101163.73;107220;1247;62159;-74
2023/09/21 01:31:50;;;;;;;19.90;10.60;;;;;;;13.52;100.00;101164.36;107312;1244;73117;-75
2023/09/21 01:34:19;;;;;;;13.80;10.60;;;;;;;13.50;100.00;101164.30;107379;1244;61222;-75
2023/09/21 01:36:48;;;;;;;15.50;11.60;;;;;;;13.47;100.00;101158.23;107195;1243;70532;-74
2023/09/21 01:39:16;;;;;;;14.60;10.50;;;;;;;13.44;100.00;101157.44;107206;1246;72643;-71
2023/09/21 01:41:46;;;;;;;13.30;10.70;;;;;;;13.47;100.00;101153.36;107321;1246;58989;-72
2023/09/21 01:44:15;;;;;;;13.70;10.80;;;;;;;13.50;100.00;101153.63;107292;1246;57387;-73
2023/09/21 01:46:45;;;;;;;15.40;11.30;;;;;;;13.48;100.00;101156.61;107334;1255;61983;-74
2023/09/21 01:49:14;;;;;;;13.10;10.40;;;;;;;13.42;100.00;101160.42;107195;1244;71912;-74
2023/09/21 01:51:44;;;;;;;13.40;10.70;;;;;;;13.36;100.00;101162.64;106916;1247;60098;-74
2023/09/21 01:54:13;;;;;;;12.50;10.00;;;;;;;13.31;100.00;101162.29;107039;1248;72938;-72
2023/09/21 01:56:42;;;;;;;12.50;9.70;;;;;;;13.28;100.00;101162.52;107097;1245;63922;-71
2023/09/21 01:59:11;;;;;;;12.40;9.80;;;;;;;13.22;100.00;101157.89;107020;1245;59004;-72
2023/09/21 02:01:42;;;;;;;13.00;9.60;;;;;;;13.16;100.00;101155.75;106982;1243;63212;-73
2023/09/21 02:04:11;;;;;;;12.40;9.10;;;;;;;13.10;100.00;101156.93;107116;1246;71377;-73
2023/09/21 02:06:40;;;;;;;12.20;9.70;;;;;;;13.08;100.00;101155.61;107286;1245;70022;-73
2023/09/21 02:09:09;;;;;;;12.00;10.10;;;;;;;13.08;100.00;101159.34;107167;1244;73211;-73
2023/09/21 02:11:39;;;;;;;11.50;9.10;;;;;;;13.07;100.00;101158.34;107171;1245;59131;-73
2023/09/21 02:14:08;;;;;;;11.70;9.50;;;;;;;13.13;100.00;101163.29;107146;1244;59142;-72
2023/09/21 02:16:37;;;;;;;11.80;9.80;;;;;;;13.24;100.00;101165.44;107204;1246;72624;-73
2023/09/21 02:19:07;;;;;;;13.90;9.60;;;;;;;13.25;100.00;101165.38;107204;1248;71281;-73
2023/09/21 02:21:36;;;;;;;12.20;9.50;;;;;;;13.30;100.00;101166.44;107186;1256;59443;-73
2023/09/21 02:24:06;;;;;;;12.50;9.90;;;;;;;13.39;100.00;101169.05;107181;1246;62283;-73
2023/09/21 02:26:37;;;;;;;11.50;9.70;;;;;;;13.47;100.00;101169.13;107209;1255;62864;-73
2023/09/21 02:29:07;;;;;;;14.40;9.60;;;;;;;13.44;100.00;101165.80;107476;1244;61391;-73
2023/09/21 02:31:37;;;;;;;11.40;9.40;;;;;;;13.42;100.00;101168.45;107720;1244;72995;-73
2023/09/21 02:34:09;;;;;;;11.90;9.80;;;;;;;13.39;100.00;101165.71;107382;1245;71411;-74
2023/09/21 02:36:38;;;;;;;15.70;9.90;;;;;;;13.35;100.00;101162.53;107281;1246;59410;-74
2023/09/21 02:39:08;;;;;;;13.80;9.60;;;;;;;13.27;100.00;101162.77;107283;1245;63168;-74
2023/09/21 02:41:37;;;;;;;16.10;10.10;;;;;;;13.19;100.00;101159.67;107186;1247;62864;-74
2023/09/21 02:44:07;;;;;;;12.50;10.00;;;;;;;13.15;100.00;101156.34;107338;1253;60986;-74
2023/09/21 02:46:36;;;;;;;13.70;9.50;;;;;;;13.12;100.00;101156.91;107197;1247;62731;-74
2023/09/21 02:49:06;;;;;;;13.30;9.80;;;;;;;13.09;100.00;101155.55;107247;1246;61555;-75
2023/09/21 02:51:38;;;;;;;11.30;9.60;;;;;;;13.06;100.00;101159.09;107183;1248;70438;-76
2023/09/21 02:54:11;;;;;;;15.30;10.30;;;;;;;13.01;100.00;101159.65;107119;1248;62964;-74
2023/09/21 02:56:40;;;;;;;;;;;;;;;12.96;100.00;101162.09;107306;1244;57818;-74
2023/09/21 02:59:13;;;;;;;12.80;10.50;;;;;;;12.89;100.00;101162.48;107209;1244;59044;-74
2023/09/21 03:01:42;;;;;;;12.60;9.90;;;;;;;12.85;100.00;101164.19;107334;1248;62740;-73
2023/09/21 03:04:12;;;;;;;12.80;10.60;;;;;;;12.85;100.00;101167.69;107064;1247;61950;-75
2023/09/21 03:06:43;;;;;;;15.30;11.80;;;;;;;12.86;100.00;101167.65;109615;1244;59070;-74
2023/09/21 03:09:11;;;;;;;13.40;11.00;;;;;;;12.87;100.00;101167.90;109539;1243;73128;-74
2023/09/21 03:11:42;;;;;;;13.10;9.40;;;;;;;12.87;100.00;101163.15;109407;1244;62369;-75
2023/09/21 03:14:11;;;;;;;12.60;9.60;;;;;;;12.92;100.00;101164.33;109391;1244;60775;-73
2023/09/21 03:16:43;;;;;;;13.20;10.00;;;;;;;13.00;100.00;101163.77;109496;1244;73201;-73
2023/09/21 03:19:13;;;;;;;12.30;9.40;;;;;;;12.96;100.00;101164.88;109494;1243;72462;-72
2023/09/21 03:21:42;;;;;;;12.20;9.90;;;;;;;12.94;100.00;101166.13;109527;1243;69350;-72
2023/09/21 03:24:11;;;;;;;11.30;9.20;;;;;;;12.91;100.00;101168.61;109503;1243;74753;-71
2023/09/21 03:26:40;;;;;;;12.30;10.30;;;;;;;12.90;100.00;101170.06;109424;1246;62755;-72
2023/09/21 03:29:12;;;;;;;13.10;10.00;;;;;;;12.97;100.00;101170.64;109483;1244;61719;-70
2023/09/21 03:31:42;;;;;;;18.80;13.30;;;;;;;12.99;100.00;101170.64;109497;1244;63207;-72
2023/09/21 03:34:12;;;;;;;13.80;10.50;;;;;;;12.98;100.00;101171.60;109425;1244;72513;-71
2023/09/21 03:36:41;;;;;;;14.00;10.80;;;;;;;12.98;100.00;101172.13;109428;1244;70418;-80
2023/09/21 03:39:10;;;;;;;16.10;10.30;;;;;;;12.98;100.00;101170.39;109333;1244;73630;-74
2023/09/21 03:41:39;;;;;;;13.60;9.50;;;;;;;13.04;100.00;101167.63;109409;1245;62392;-77
2023/09/21 03:44:08;;;;;;;20.80;13.20;;;;;;;13.21;100.00;101167.46;109487;1243;57249;-77
2023/09/21 03:46:38;;;;;;;13.40;9.90;;;;;;;13.32;100.00;101170.66;109496;1244;62805;-73
2023/09/21 03:49:07;;;;;;;25.60;17.80;;;;;;;13.33;100.00;101171.77;109424;1244;60817;-77
2023/09/21 03:51:38;;;;;;;12.80;9.80;;;;;;;13.33;100.00;101169.32;109325;1244;70386;-77
2023/09/21 03:54:07;;;;;;;13.00;10.00;;;;;;;13.33;100.00;101168.15;109428;1245;74222;-77
2023/09/21 03:56:38;;;;;;;14.20;9.70;;;;;;;13.28;100.00;101169.88;109275;1247;57718;-78
2023/09/21 03:59:08;;;;;;;12.90;9.50;;;;;;;13.24;100.00;101170.69;109394;1244;57690;-77
2023/09/21 04:01:39;;;;;;;14.80;10.60;;;;;;;13.22;100.00;101173.50;109409;1244;62696;-77
2023/09/21 04:04:18;;;;;;;14.50;10.10;;;;;;;13.20;100.00;101173.23;109562;1244;60870;-76
2023/09/21 04:06:48;;;;;;;14.40;10.90;;;;;;;13.15;100.00;101170.83;109354;1244;69590;-76
2023/09/21 04:09:18;;;;;;;15.20;10.50;;;;;;;13.15;100.00;101171.33;109373;1243;74298;-79
2023/09/21 04:11:47;;;;;;;17.00;11.50;;;;;;;13.15;100.00;101172.38;109425;1243;63243;-75
2023/09/21 04:14:16;;;;;;;14.70;11.20;;;;;;;13.15;100.00;101174.17;109519;1243;57686;-76
2023/09/21 04:16:46;;;;;;;16.80;11.20;;;;;;;13.15;100.00;101176.23;109506;1244;64221;-76
2023/09/21 04:19:15;;;;;;;16.60;12.00;;;;;;;13.23;100.00;101178.31;109402;1243;61205;-76
2023/09/21 04:21:46;;;;;;;16.40;11.40;;;;;;;13.31;100.00;101182.76;109457;1242;60325;-77
2023/09/21 04:24:15;;;;;;;17.10;12.00;;;;;;;13.36;100.00;101185.52;109460;1243;64665;-75
2023/09/21 04:26:44;;;;;;;20.30;12.80;;;;;;;13.40;100.00;101182.10;109440;1245;62163;-76
2023/09/21 04:29:15;;;;;;;16.40;11.30;;;;;;;13.48;100.00;101185.50;109571;1243;60563;-76
2023/09/21 04:31:45;;;;;;;18.10;11.40;;;;;;;13.57;100.00;101186.77;109488;1244;73603;-73
2023/09/21 04:34:14;;;;;;;19.40;11.60;;;;;;;13.64;100.00;101186.84;109456;1243;61218;-75
2023/09/21 04:36:43;;;;;;;17.60;12.10;;;;;;;13.72;100.00;101185.73;109442;1244;59286;-76
2023/09/21 04:39:14;;;;;;;16.70;12.00;;;;;;;13.80;100.00;101185.11;109365;1244;63404;-75
2023/09/21 04:41:44;;;;;;;19.50;12.10;;;;;;;13.89;100.00;101183.85;109340;1245;62901;-75
2023/09/21 04:44:15;;;;;;;19.30;12.40;;;;;;;13.97;100.00;101178.88;109340;1244;57762;-75
2023/09/21 04:46:44;;;;;;;24.80;13.00;;;;;;;14.06;100.00;101177.45;109281;1243;63070;-76
2023/09/21 04:49:13;;;;;;;17.00;11.60;;;;;;;14.26;100.00;101175.84;109363;1243;61676;-75
2023/09/21 04:51:42;;;;;;;25.80;12.40;;;;;;;14.42;100.00;101178.56;109358;1244;70171;-76
2023/09/21 04:54:11;;;;;;;23.30;13.40;;;;;;;14.54;100.00;101180.96;109361;1244;73559;-76
2023/09/21 04:56:40;;;;;;;23.00;12.60;;;;;;;14.62;100.00;101180.85;109374;1245;57725;-75
2023/09/21 04:59:09;;;;;;;17.60;11.70;;;;;;;14.68;100.00;101184.00;109487;1243;57717;-75
2023/09/21 05:01:38;;;;;;;19.50;11.10;;;;;;;14.65;100.00;101187.45;109438;1243;62993;-76
2023/09/21 05:04:09;;;;;;;23.10;9.90;;;;;;;14.61;100.00;101186.70;109444;1243;61520;-76
2023/09/21 05:06:39;;;;;;;20.40;10.10;;;;;;;14.49;100.00;101181.33;109593;1242;70066;-76
2023/09/21 05:09:09;;;;;;;32.00;11.10;;;;;;;14.31;100.00;101180.17;109474;1245;72993;-77
2023/09/21 05:11:38;;;;;;;20.70;10.90;;;;;;;14.23;100.00;101182.19;109449;1242;61899;-75
2023/09/21 05:14:08;;;;;;;18.40;10.50;;;;;;;14.25;100.00;101186.23;109527;1244;57212;-76
2023/09/21 05:16:37;;;;;;;16.00;10.70;;;;;;;14.27;100.00;101183.81;109679;1244;74088;-76
2023/09/21 05:19:07;;;;;;;16.00;10.80;;;;;;;14.27;100.00;101182.95;109631;1243;72739;-75
2023/09/21 05:21:37;;;;;;;14.80;11.40;;;;;;;14.26;100.00;101186.30;109405;1243;70316;-76
2023/09/21 05:24:07;;;;;;;18.90;11.20;;;;;;;14.29;100.00;101186.95;109335;1242;74186;-76
2023/09/21 05:26:36;;;;;;;23.00;11.80;;;;;;;14.31;100.00;101188.71;109411;1244;61914;-76
2023/09/21 05:29:06;;;;;;;19.40;14.30;;;;;;;14.33;100.00;101188.73;109440;1243;61781;-76
2023/09/21 05:31:35;;;;;;;26.40;13.80;;;;;;;14.36;100.00;101192.93;109582;1243;74206;-76
2023/09/21 05:34:04;;;;;;;23.10;13.80;;;;;;;14.36;100.00;101195.23;109553;1244;72062;-77
2023/09/21 05:36:33;;;;;;;21.10;13.80;;;;;;;14.37;100.00;101195.13;109328;1243;60156;-76
2023/09/21 05:39:04;;;;;;;22.20;14.10;;;;;;;14.41;100.00;101192.66;109531;1244;71694;-76
2023/09/21 05:41:33;;;;;;;26.00;14.20;;;;;;;14.50;100.00;101196.00;109507;1242;63430;-77
2023/09/21 05:44:02;;;;;;;19.90;13.80;;;;;;;14.62;100.00;101200.99;109531;1243;57777;-75
2023/09/21 05:46:31;;;;;;;23.30;14.30;;;;;;;14.73;100.00;101202.95;109480;1243;63917;-76
2023/09/21 05:49:00;;;;;;;21.80;15.50;;;;;;;14.83;100.00;101199.65;109386;1243;61515;-74
2023/09/21 05:51:30;;;;;;;29.50;15.30;;;;;;;14.92;100.00;101199.70;109455;1243;58986;-74
2023/09/21 05:54:00;;;;;;;22.60;14.40;;;;;;;15.07;100.00;101199.89;109487;1244;62369;-82
2023/09/21 05:56:29;;;;;;;25.50;15.70;;;;;;;15.30;100.00;101202.67;109487;1243;62620;-78
2023/09/21 05:59:00;;;;;;;28.00;16.80;;;;;;;15.58;100.00;101206.29;109422;1243;61733;-78
2023/09/21 06:01:31;;;;;;;26.00;17.10;;;;;;;15.87;100.00;101201.48;109577;1242;73088;-77
2023/09/21 06:04:00;;;;;;;23.00;15.70;;;;;;;16.15;100.00;101201.56;109588;1244;71628;-78
2023/09/21 06:06:30;;;;;;;20.60;15.50;;;;;;;16.46;100.00;101196.84;109598;1243;71203;-77
2023/09/21 06:08:58;;;;;;;28.30;19.30;;;;;;;16.70;100.00;101194.16;109615;1243;74608;-78
2023/09/21 06:11:29;;;;;;;24.80;18.30;;;;;;;16.89;100.00;101194.55;109521;1245;62554;-77
2023/09/21 06:13:58;;;;;;;26.40;17.00;;;;;;;17.08;100.00;101194.27;109610;1242;61233;-77
2023/09/21 06:16:26;;;;;;;57.10;48.10;;;;;;;17.25;100.00;101192.12;109621;1243;72878;-77
2023/09/21 06:18:55;;;;;;;33.10;24.80;;;;;;;17.52;100.00;101194.32;109610;1244;72528;-76
2023/09/21 06:21:26;;;;;;;28.90;17.60;;;;;;;17.84;100.00;101196.29;109727;1243;70472;-79
2023/09/21 06:23:55;;;;;;;30.30;16.40;;;;;;;17.93;100.00;101192.38;109674;1244;65106;-78
2023/09/21 06:26:24;;;;;;;25.50;15.40;;;;;;;18.00;100.00;101191.58;109475;1245;63232;-78
2023/09/21 06:28:52;;;;;;;22.60;15.60;;;;;;;18.08;100.00;101188.90;109595;1243;57697;-78
2023/09/21 06:31:21;;;;;;;25.40;17.60;;;;;;;18.13;100.00;101186.65;109615;1243;62778;-79
2023/09/21 06:33:58;;;;;;;26.00;17.00;;;;;;;18.24;100.00;101187.65;109437;1244;61426;-79
2023/09/21 06:36:30;;;;;;;20.20;15.50;;;;;;;18.29;100.00;101184.02;109415;1243;70605;-78
2023/09/21 06:38:59;;;;;;;24.50;15.70;;;;;;;18.40;100.00;101183.66;109387;1244;73813;-77
2023/09/21 06:41:29;;;;;;;29.20;16.40;;;;;;;18.46;100.00;101184.25;109402;1245;58234;-77
2023/09/21 06:43:57;;;;;;;25.70;16.50;;;;;;;18.59;100.00;101184.27;109457;1243;61097;-78
2023/09/21 06:46:26;;;;;;;23.90;15.50;;;;;;;18.66;100.00;101185.84;109472;1243;73284;-78
2023/09/21 06:48:55;;;;;;;23.30;16.30;;;;;;;18.66;100.00;101187.22;109445;1243;63402;-78
2023/09/21 06:51:28;;;;;;;23.40;14.80;;;;;;;18.69;100.00;101184.98;109366;1244;59229;-77
2023/09/21 06:54:00;;;;;;;25.30;15.60;;;;;;;18.76;100.00;101184.68;109435;1244;63148;-77
2023/09/21 06:56:32;;;;;;;24.40;16.50;;;;;;;18.75;100.00;101181.06;109542;1244;57623;-77
2023/09/21 06:59:01;;;;;;;20.50;14.20;;;;;;;18.90;100.00;101179.90;109548;1244;57671;-77
2023/09/21 07:01:32;;;;;;;24.40;16.20;;;;;;;18.99;100.00;101179.68;109347;1244;71303;-77
2023/09/21 07:04:02;;;;;;;22.00;14.80;;;;;;;19.12;100.00;101177.58;109477;1244;71677;-77
2023/09/21 07:06:31;;;;;;;22.10;14.10;;;;;;;19.25;100.00;101174.63;109348;1245;60545;-78
2023/09/21 07:09:02;;;;;;;22.10;15.00;;;;;;;19.36;100.00;101176.67;109458;1243;63746;-77
2023/09/21 07:11:33;;;;;;;20.10;14.50;;;;;;;19.42;100.00;101175.19;109422;1246;57680;-78
2023/09/21 07:14:03;;;;;;;23.70;16.70;;;;;;;19.61;100.00;101172.69;109585;1244;57782;-78
2023/09/21 07:16:32;;;;;;;24.00;15.70;;;;;;;19.77;100.00;101174.01;109577;1244;72445;-78
2023/09/21 07:19:02;;;;;;;24.20;15.60;;;;;;;19.93;100.00;101168.50;109592;1244;61529;-78
2023/09/21 07:21:31;;;;;;;25.00;16.00;;;;;;;20.02;100.00;101174.16;109558;1244;68222;-77
2023/09/21 07:24:00;;;;;;;33.60;18.10;;;;;;;20.21;100.00;101174.24;109408;1244;73318;-76
2023/09/21 07:26:30;;;;;;;28.90;16.00;;;;;;;20.24;100.00;101170.89;109402;1244;62165;-77
2023/09/21 07:29:07;;;;;;;24.30;14.80;;;;;;;20.47;100.00;101168.80;109422;1243;57156;-78
2023/09/21 07:31:36;;;;;;;28.90;18.00;;;;;;;20.60;100.00;101169.52;109181;1243;63695;-77
2023/09/21 07:34:06;;;;;;;23.50;16.10;;;;;;;20.72;100.00;101168.20;109445;1243;72190;-76
2023/09/21 07:36:36;;;;;;;22.30;13.70;;;;;;;20.98;100.00;101169.61;109351;1243;59507;-77
2023/09/21 07:39:09;;;;;;;17.50;14.30;;;;;;;21.24;100.00;101164.31;109442;1243;73818;-77
2023/09/21 07:41:40;;;;;;;13.00;11.20;;;;;;;21.35;100.00;101161.48;109313;1244;62507;-77
2023/09/21 07:44:09;;;;;;;12.40;9.60;;;;;;;21.37;100.00;101158.63;109394;1244;57767;-77
2023/09/21 07:46:38;;;;;;;12.60;9.90;;;;;;;21.34;100.00;101154.70;109417;1244;62943;-77
2023/09/21 07:49:07;;;;;;;12.50;10.00;;;;;;;21.43;100.00;101152.15;109332;1245;60901;-77
2023/09/21 07:51:36;;;;;;;13.30;9.70;;;;;;;21.65;100.00;101148.75;108840;1243;470783;-77
2023/09/21 07:54:06;;;;;;;17.00;10.30;;;;;;;21.81;100.00;101146.91;109287;1244;73881;-77
2023/09/21 07:56:41;;;;;;;12.80;10.10;;;;;;;21.95;100.00;101140.23;109424;1244;57720;-76
2023/09/21 07:59:10;;;;;;;10.50;8.60;;;;;;;22.17;100.00;101144.25;109422;1244;58118;-77
2023/09/21 08:01:40;;;;;;;13.00;9.10;;;;;;;22.25;100.00;101143.53;109464;1244;62733;-77
2023/09/21 08:04:09;;;;;;;12.80;9.30;;;;;;;22.29;100.00;101141.15;109313;1245;62121;-77
2023/09/21 08:06:38;;;;;;;13.20;10.10;;;;;;;22.27;100.00;101142.39;109365;1243;59066;-76
2023/09/21 08:09:08;;;;;;;14.00;10.70;;;;;;;22.33;100.00;101143.36;109328;1245;63059;-77
2023/09/21 08:11:54;;;;;;;14.80;12.20;;;;;;;22.43;100.00;101143.17;109461;1244;60849;-77
2023/09/21 08:14:23;;;;;;;16.30;11.20;;;;;;;22.44;100.00;101141.02;109453;1243;60261;-77
2023/09/21 08:16:55;;;;;;;10.60;9.40;;;;;;;22.59;100.00;101141.77;109475;1244;62684;-77
2023/09/21 08:19:25;;;;;;;12.50;9.30;;;;;;;22.72;100.00;101141.61;109346;1243;72134;-75
2023/09/21 08:21:53;;;;;;;11.70;9.10;;;;;;;22.73;100.00;101139.20;109479;1242;61818;-75
2023/09/21 08:24:23;;;;;;;14.30;8.30;;;;;;;22.68;100.00;101139.65;109331;1245;74294;-75
2023/09/21 08:26:52;;;;;;;10.80;8.90;;;;;;;22.70;100.00;101137.58;109576;1244;60802;-76
2023/09/21 08:29:21;;;;;;;10.10;8.70;;;;;;;22.65;100.00;101133.88;109618;1243;61535;-75
2023/09/21 08:31:51;;;;;;;11.30;8.50;;;;;;;22.82;100.00;101130.31;109617;1243;72968;-75
2023/09/21 08:34:19;;;;;;;13.70;8.60;;;;;;;23.04;100.00;101128.86;109626;1244;71754;-75
2023/09/21 08:36:49;;;;;;;11.00;7.90;;;;;;;23.15;100.00;101128.53;109663;1242;71215;-76
2023/09/21 08:39:18;;;;;;;9.90;8.10;;;;;;;23.00;100.00;101128.27;109613;1244;73562;-76
2023/09/21 08:41:49;;;;;;;10.10;7.60;;;;;;;23.13;100.00;101126.63;109626;1244;61358;-76
2023/09/21 08:44:18;;;;;;;12.50;8.40;;;;;;;23.22;100.00;101126.96;109379;1244;57645;-76
2023/09/21 08:46:48;;;;;;;10.00;7.90;;;;;;;23.02;100.00;101122.48;109427;1247;63014;-76
2023/09/21 08:49:21;;;;;;;9.00;7.80;;;;;;;22.74;100.00;101126.48;109495;1245;60846;-76
2023/09/21 08:51:54;;;;;;;12.50;8.20;;;;;;;22.83;100.00;101125.77;109421;1242;60038;-76
2023/09/21 08:54:23;;;;;;;;;;;;;;;23.05;100.00;101122.45;109490;1246;62426;-76
2023/09/21 08:56:55;;;;;;;9.80;7.10;;;;;;;23.26;100.00;101119.41;109602;1245;57699;-76
2023/09/21 08:59:25;;;;;;;8.00;7.20;;;;;;;23.46;100.00;101115.60;109492;1243;61228;-75
2023/09/21 09:01:55;;;;;;;11.40;7.40;;;;;;;23.57;100.00;101109.96;109656;1244;73880;-75
2023/09/21 09:04:26;;;;;;;9.60;6.50;;;;;;;23.64;100.00;101108.83;109522;1246;61993;-76
2023/09/21 09:06:55;;;;;;;10.50;7.60;;;;;;;23.66;100.00;101105.16;109625;1245;59193;-76
2023/09/21 09:09:26;;;;;;;11.10;8.30;;;;;;;23.57;100.00;101105.58;109524;1246;62273;-76
2023/09/21 09:11:56;;;;;;;10.80;8.40;;;;;;;23.74;100.00;101105.23;109563;1244;57580;-75
2023/09/21 09:14:25;;;;;;;10.60;8.40;;;;;;;23.65;100.00;101102.11;109415;1248;57205;-76
2023/09/21 09:16:54;;;;;;;11.80;8.70;;;;;;;23.79;100.00;101101.42;109594;1244;62659;-76
2023/09/21 09:19:24;;;;;;;11.20;9.40;;;;;;;23.86;100.00;101103.14;109494;1245;61619;-76
2023/09/21 09:21:53;;;;;;;14.00;8.90;;;;;;;24.07;100.00;101102.86;109486;1243;70350;-76
2023/09/21 09:24:23;;;;;;;11.80;8.80;;;;;;;24.25;100.00;101101.85;109364;1243;74094;-77
2023/09/21 09:26:52;;;;;;;13.20;9.40;;;;;;;24.46;100.00;101097.44;109443;1244;61474;-76
2023/09/21 09:29:22;;;;;;;9.60;7.20;;;;;;;24.58;100.00;101097.77;109428;1244;57183;-76
2023/09/21 09:31:51;;;;;;;11.80;7.70;;;;;;;24.60;100.00;101093.39;109464;1244;73480;-76
2023/09/21 09:34:21;;;;;;;11.70;7.60;;;;;;;24.59;100.00;101093.14;109466;1244;71653;-77
2023/09/21 09:36:52;;;;;;;8.40;7.00;;;;;;;24.77;100.00;101090.73;109298;1243;70372;-78
2023/09/21 09:39:23;;;;;;;9.20;7.10;;;;;;;24.89;100.00;101084.64;109304;1244;74353;-77
2023/09/21 09:41:53;;;;;;;9.90;6.30;;;;;;;24.82;100.00;101082.83;109336;1245;57651;-78
2023/09/21 09:44:26;;;;;;;9.50;7.10;;;;;;;24.99;100.00;101078.95;109466;1244;57252;-77
2023/09/21 09:46:58;;;;;;;12.10;7.00;;;;;;;25.30;100.00;101080.02;109285;1242;72727;-77
2023/09/21 09:49:28;;;;;;;;;;;;;;;25.29;100.00;101080.05;109473;1244;61971;-76
2023/09/21 09:52:00;;;;;;;10.30;5.90;;;;;;;25.16;100.00;101077.44;109279;1244;61560;-76
2023/09/21 09:54:31;;;;;;;10.20;6.20;;;;;;;25.49;100.00;101075.98;109344;1244;64663;-76
2023/09/21 09:57:01;;;;;;;6.90;5.60;;;;;;;25.54;100.00;101072.74;109351;1245;57709;-76
2023/09/21 09:59:35;;;;;;;8.50;5.80;;;;;;;25.55;100.00;101067.03;109389;1244;57656;-76
2023/09/21 10:02:07;;;;;;;11.00;6.00;;;;;;;25.37;100.00;101060.71;109367;1246;62080;-77
2023/09/21 10:04:38;;;;;;;7.20;5.70;;;;;;;25.64;100.00;101060.20;109468;1244;70057;-77
2023/09/21 10:07:08;;;;;;;7.80;5.80;;;;;;;25.84;100.00;101057.55;109434;1243;70895;-76
2023/09/21 10:09:37;;;;;;;14.20;6.40;;;;;;;25.83;100.00;101056.90;109451;1243;63440;-76
2023/09/21 10:12:07;;;;;;;7.50;6.10;;;;;;;26.04;100.00;101052.23;109346;1245;57686;-74
2023/09/21 10:14:49;;;;;;;7.20;6.30;;;;;;;26.15;100.00;101043.77;109339;1244;61232;-75
2023/09/21 10:17:27;;;;;;;7.20;5.60;;;;;;;26.41;99.55;101041.10;109343;1248;74053;-75
2023/09/21 10:20:14;;;;;;;7.30;6.00;;;;;;;26.46;97.35;101038.02;109335;1245;71741;-76
2023/09/21 10:22:44;;;;;;;8.30;5.90;;;;;;;26.59;96.29;101035.08;109630;1243;59534;-75
2023/09/21 10:25:18;;;;;;;9.30;5.60;;;;;;;27.02;93.84;101033.14;109584;1244;73549;-75
2023/09/21 10:27:49;;;;;;;8.50;5.20;;;;;;;27.55;93.37;101030.02;109433;1246;61015;-75
2023/09/21 10:30:23;;;;;;;6.10;5.40;;;;;;;27.72;90.07;101029.39;109616;1244;57709;-75
2023/09/21 10:32:53;;;;;;;7.00;5.30;;;;;;;27.60;90.43;101027.83;109608;1244;72481;-76
2023/09/21 10:35:42;;;;;;;11.70;5.40;;;;;;;28.16;88.18;101021.73;109481;1243;61381;-75
2023/09/21 10:38:16;;;;;;;7.00;5.20;;;;;;;27.70;88.68;101022.63;109402;1243;59210;-76
2023/09/21 10:40:45;;;;;;;7.70;5.60;;;;;;;27.50;90.21;101018.39;109445;1242;73687;-76
2023/09/21 10:43:39;;;;;;;6.60;5.00;;;;;;;27.43;89.82;101017.45;109391;1244;57705;-76
2023/09/21 10:46:20;;;;;;;8.50;5.00;;;;;;;27.30;90.05;101018.13;109285;1245;57658;-75
2023/09/21 10:49:14;;;;;;;7.10;5.10;;;;;;;27.83;89.65;101015.71;109363;1245;64808;-76
2023/09/21 10:51:45;;;;;;;8.40;5.50;;;;;;;27.90;88.34;101014.77;109400;1244;60693;-76
2023/09/21 10:54:17;;;;;;;10.50;6.00;;;;;;;27.63;89.42;101006.60;109249;1243;59104;-76
2023/09/21 10:56:47;;;;;;;7.50;5.40;;;;;;;27.79;89.03;100998.75;109329;1245;64045;-76
2023/09/21 10:59:16;;;;;;;8.30;5.70;;;;;;;28.16;86.70;100996.90;109258;1245;60519;-77
2023/09/21 11:01:45;;;;;;;8.10;5.40;;;;;;;27.71;88.50;100997.55;109393;1244;60618;-75
2023/09/21 11:04:15;;;;;;;8.40;5.40;;;;;;;27.68;87.08;100996.36;109464;1244;72878;-78
2023/09/21 11:06:46;;;;;;;8.40;5.00;;;;;;;27.59;87.53;100993.59;109358;1243;62484;-77
2023/09/21 11:09:17;;;;;;;7.20;4.80;;;;;;;27.34;88.64;100997.06;109261;1244;60463;-75
2023/09/21 11:11:47;;;;;;;6.80;5.20;;;;;;;27.65;88.33;100991.05;109452;1244;62660;-76
2023/09/21 11:14:16;;;;;;;9.30;5.00;;;;;;;28.03;86.71;100993.33;109415;1244;57296;-77